createdAt,value
2022-10-23T00:01:56.368Z,100.00
2022-10-23T00:04:27.765Z,100.00
2022-10-23T00:06:55.006Z,100.00
2022-10-23T00:09:24.524Z,100.00
2022-10-23T00:11:52.684Z,100.00
2022-10-23T00:14:23.164Z,100.00
2022-10-23T00:16:50.825Z,100.00
2022-10-23T00:19:18.651Z,100.00
2022-10-23T00:21:45.967Z,100.00
2022-10-23T00:24:13.821Z,100.00
2022-10-23T00:26:41.515Z,100.00
2022-10-23T00:29:10.678Z,100.00
2022-10-23T00:31:39.050Z,100.00
2022-10-23T00:34:10.463Z,100.00
2022-10-23T00:40:09.021Z,100.00
2022-10-23T00:42:44.427Z,100.00
2022-10-23T00:45:38.588Z,100.00
2022-10-23T00:48:05.989Z,100.00
2022-10-23T00:50:33.918Z,100.00
2022-10-23T00:53:03.602Z,100.00
2022-10-23T00:55:33.506Z,100.00
2022-10-23T00:58:00.936Z,100.00
2022-10-23T01:00:51.047Z,100.00
2022-10-23T01:03:23.587Z,100.00
2022-10-23T01:06:06.298Z,100.00
2022-10-23T01:08:45.993Z,100.00
2022-10-23T01:11:30.614Z,100.00
2022-10-23T01:14:21.313Z,100.00
2022-10-23T01:17:11.436Z,100.00
2022-10-23T01:20:11.516Z,100.00
2022-10-23T01:22:57.356Z,100.00
2022-10-23T01:25:55.126Z,100.00
2022-10-23T01:28:30.361Z,100.00
2022-10-23T01:31:00.195Z,100.00
2022-10-23T01:33:40.820Z,100.00
2022-10-23T01:36:15.342Z,100.00
2022-10-23T01:39:09.127Z,100.00
2022-10-23T01:41:55.113Z,100.00
2022-10-23T01:45:03.132Z,100.00
2022-10-23T01:47:44.476Z,100.00
2022-10-23T01:50:21.683Z,100.00
2022-10-23T01:52:50.689Z,100.00
2022-10-23T01:55:19.175Z,100.00
2022-10-23T01:57:49.789Z,100.00
2022-10-23T02:00:19.975Z,100.00
2022-10-23T02:02:54.445Z,100.00
2022-10-23T02:05:29.688Z,100.00
2022-10-23T02:07:59.023Z,100.00
2022-10-23T02:10:41.505Z,100.00
2022-10-23T02:13:13.170Z,100.00
2022-10-23T02:15:49.352Z,100.00
2022-10-23T02:18:41.299Z,100.00
2022-10-23T02:21:20.192Z,100.00
2022-10-23T02:24:03.051Z,100.00
2022-10-23T02:26:43.678Z,100.00
2022-10-23T02:29:14.232Z,100.00
2022-10-23T02:31:44.219Z,100.00
2022-10-23T02:34:11.611Z,100.00
2022-10-23T02:36:39.323Z,100.00
2022-10-23T02:39:07.360Z,100.00
2022-10-23T02:41:49.449Z,100.00
2022-10-23T02:44:43.025Z,100.00
2022-10-23T02:47:13.830Z,100.00
2022-10-23T02:50:15.676Z,100.00
2022-10-23T02:53:25.891Z,100.00
2022-10-23T02:56:03.779Z,100.00
2022-10-23T02:58:46.959Z,100.00
2022-10-23T03:01:19.740Z,100.00
2022-10-23T03:03:53.139Z,100.00
2022-10-23T03:06:22.067Z,100.00
2022-10-23T03:08:59.176Z,100.00
2022-10-23T03:11:27.143Z,100.00
2022-10-23T03:13:56.339Z,100.00
2022-10-23T03:16:24.010Z,100.00
2022-10-23T03:18:54.756Z,100.00
2022-10-23T03:21:22.912Z,100.00
2022-10-23T03:23:53.869Z,100.00
2022-10-23T03:26:29.264Z,100.00
2022-10-23T03:28:57.038Z,100.00
2022-10-23T03:31:24.640Z,100.00
2022-10-23T03:33:57.134Z,100.00
2022-10-23T03:36:24.410Z,100.00
2022-10-23T03:38:52.989Z,100.00
2022-10-23T03:41:21.550Z,100.00
2022-10-23T03:43:49.288Z,100.00
2022-10-23T03:46:16.681Z,100.00
2022-10-23T03:48:49.102Z,100.00
2022-10-23T03:51:21.873Z,100.00
2022-10-23T03:53:52.697Z,100.00
2022-10-23T03:56:23.359Z,100.00
2022-10-23T03:58:50.887Z,100.00
2022-10-23T04:01:18.248Z,100.00
2022-10-23T04:03:46.872Z,100.00
2022-10-23T04:06:16.234Z,100.00
2022-10-23T04:08:45.272Z,100.00
2022-10-23T04:11:15.930Z,100.00
2022-10-23T04:13:47.700Z,100.00
2022-10-23T04:16:15.318Z,100.00
2022-10-23T04:18:45.465Z,100.00
2022-10-23T04:21:13.851Z,100.00
2022-10-23T04:23:41.713Z,100.00
2022-10-23T04:26:17.668Z,100.00
2022-10-23T04:28:45.198Z,100.00
2022-10-23T04:31:12.790Z,100.00
2022-10-23T04:33:44.033Z,100.00
2022-10-23T04:36:25.466Z,100.00
2022-10-23T04:38:53.395Z,100.00
2022-10-23T04:41:20.916Z,100.00
2022-10-23T04:43:48.571Z,100.00
2022-10-23T04:46:16.245Z,100.00
2022-10-23T04:48:47.435Z,100.00
2022-10-23T04:51:48.105Z,100.00
2022-10-23T04:54:38.658Z,100.00
2022-10-23T04:57:32.142Z,100.00
2022-10-23T05:00:03.820Z,100.00
2022-10-23T05:02:44.803Z,100.00
2022-10-23T05:05:18.704Z,100.00
2022-10-23T05:07:55.524Z,100.00
2022-10-23T05:10:44.563Z,100.00
2022-10-23T05:13:15.560Z,100.00
2022-10-23T05:16:03.252Z,100.00
2022-10-23T05:18:38.292Z,100.00
2022-10-23T05:21:14.863Z,100.00
2022-10-23T05:23:44.583Z,100.00
2022-10-23T05:26:14.130Z,100.00
2022-10-23T05:28:45.133Z,100.00
2022-10-23T05:31:16.017Z,100.00
2022-10-23T05:33:48.823Z,100.00
2022-10-23T05:36:17.677Z,100.00
2022-10-23T05:38:46.246Z,100.00
2022-10-23T05:41:17.565Z,100.00
2022-10-23T05:43:46.319Z,100.00
2022-10-23T05:46:44.305Z,100.00
2022-10-23T05:49:37.623Z,100.00
2022-10-23T05:52:31.118Z,100.00
2022-10-23T05:55:21.434Z,100.00
2022-10-23T05:58:11.804Z,100.00
2022-10-23T06:01:09.767Z,100.00
2022-10-23T06:04:22.613Z,100.00
2022-10-23T06:09:53.039Z,100.00
2022-10-23T06:12:27.192Z,100.00
2022-10-23T06:15:43.514Z,100.00
2022-10-23T06:18:25.496Z,100.00
2022-10-23T06:21:02.501Z,100.00
2022-10-23T06:23:32.513Z,100.00
2022-10-23T06:26:20.411Z,100.00
2022-10-23T06:28:54.861Z,100.00
2022-10-23T06:31:26.877Z,100.00
2022-10-23T06:34:00.496Z,100.00
2022-10-23T06:36:34.108Z,100.00
2022-10-23T06:39:58.005Z,100.00
2022-10-23T06:43:42.765Z,100.00
2022-10-23T06:46:14.666Z,100.00
2022-10-23T06:49:04.915Z,100.00
2022-10-23T06:51:39.713Z,100.00
2022-10-23T06:54:12.119Z,100.00
2022-10-23T06:56:59.619Z,100.00
2022-10-23T06:59:38.872Z,98.80
2022-10-23T07:02:07.459Z,96.42
2022-10-23T07:04:35.251Z,94.65
2022-10-23T07:07:07.193Z,99.57
2022-10-23T07:09:43.478Z,96.32
2022-10-23T07:12:31.025Z,93.62
2022-10-23T07:15:34.194Z,98.45
2022-10-23T07:18:01.927Z,95.04
2022-10-23T07:20:43.103Z,93.16
2022-10-23T07:23:12.329Z,100.00
2022-10-23T07:25:40.638Z,97.35
2022-10-23T07:28:09.317Z,95.17
2022-10-23T07:30:37.196Z,95.72
2022-10-23T07:33:06.610Z,93.44
2022-10-23T07:35:48.362Z,94.94
2022-10-23T07:38:44.258Z,96.04
2022-10-23T07:42:13.372Z,99.17
2022-10-23T07:45:42.754Z,96.26
2022-10-23T07:48:32.046Z,94.02
2022-10-23T07:51:01.698Z,97.91
2022-10-23T07:53:30.701Z,96.34
2022-10-23T07:56:15.330Z,100.00
2022-10-23T07:59:01.155Z,100.00
2022-10-23T08:01:33.635Z,97.29
2022-10-23T08:04:02.162Z,96.95
2022-10-23T08:06:36.863Z,95.30
2022-10-23T08:09:20.126Z,96.91
2022-10-23T08:11:53.563Z,97.50
2022-10-23T08:14:31.414Z,96.20
2022-10-23T08:16:59.231Z,94.83
2022-10-23T08:19:55.668Z,92.55
2022-10-23T08:22:24.687Z,91.03
2022-10-23T08:24:52.270Z,90.49
2022-10-23T08:27:19.852Z,88.87
2022-10-23T08:29:48.579Z,90.37
2022-10-23T08:32:15.842Z,91.22
2022-10-23T08:34:55.238Z,88.65
2022-10-23T08:37:24.623Z,90.43
2022-10-23T08:39:53.424Z,87.71
2022-10-23T08:42:28.103Z,89.03
2022-10-23T08:45:41.333Z,85.46
2022-10-23T08:48:38.193Z,73.53
2022-10-23T08:51:44.784Z,75.86
2022-10-23T08:54:16.088Z,75.45
2022-10-23T08:56:57.370Z,73.69
2022-10-23T08:59:29.504Z,72.60
2022-10-23T09:02:17.914Z,80.59
2022-10-23T09:04:48.854Z,79.62
2022-10-23T09:07:49.778Z,74.48
2022-10-23T09:10:26.269Z,75.08
2022-10-23T09:12:57.289Z,76.12
2022-10-23T09:15:49.108Z,74.71
2022-10-23T09:18:20.058Z,73.96
2022-10-23T09:20:54.313Z,71.93
2022-10-23T09:24:11.130Z,68.61
2022-10-23T09:26:51.077Z,68.41
2022-10-23T09:29:38.804Z,70.25
2022-10-23T09:32:10.747Z,72.10
2022-10-23T09:34:58.091Z,70.70
2022-10-23T09:37:32.951Z,72.45
2022-10-23T09:40:34.939Z,68.11
2022-10-23T09:43:14.891Z,66.22
2022-10-23T09:46:06.648Z,65.04
2022-10-23T09:48:36.986Z,66.21
2022-10-23T09:51:21.815Z,64.87
2022-10-23T09:53:56.252Z,64.85
2022-10-23T09:56:29.038Z,65.26
2022-10-23T09:59:00.603Z,64.36
2022-10-23T10:01:36.412Z,64.21
2022-10-23T10:04:39.208Z,63.95
2022-10-23T10:07:25.179Z,63.36
2022-10-23T10:09:57.091Z,62.90
2022-10-23T10:12:40.854Z,59.60
2022-10-23T10:15:33.086Z,59.76
2022-10-23T10:18:53.384Z,59.08
2022-10-23T10:21:51.046Z,59.27
2022-10-23T10:25:11.654Z,60.28
2022-10-23T10:28:29.728Z,57.11
2022-10-23T10:30:56.984Z,53.04
2022-10-23T10:36:53.245Z,53.03
2022-10-23T10:40:10.768Z,50.32
2022-10-23T10:43:01.855Z,52.43
2022-10-23T10:45:49.822Z,52.19
2022-10-23T10:49:02.812Z,51.18
2022-10-23T10:52:02.318Z,50.24
2022-10-23T10:54:41.607Z,49.77
2022-10-23T10:57:43.029Z,52.35
2022-10-23T11:00:18.111Z,52.75
2022-10-23T11:02:53.930Z,51.23
2022-10-23T11:05:35.205Z,52.91
2022-10-23T11:08:20.613Z,53.45
2022-10-23T11:10:53.289Z,53.09
2022-10-23T11:13:34.743Z,56.42
2022-10-23T11:16:09.264Z,53.64
2022-10-23T11:18:40.788Z,54.42
2022-10-23T11:21:19.964Z,52.07
2022-10-23T11:27:10.377Z,51.32
2022-10-23T11:29:41.007Z,48.47
2022-10-23T11:32:49.720Z,49.88
2022-10-23T11:35:39.782Z,50.75
2022-10-23T11:38:28.428Z,49.29
2022-10-23T11:41:00.123Z,49.41
2022-10-23T11:43:36.984Z,48.43
2022-10-23T11:46:29.784Z,48.33
2022-10-23T11:48:59.650Z,49.79
2022-10-23T11:51:38.722Z,50.33
2022-10-23T11:54:22.440Z,49.05
2022-10-23T11:57:10.583Z,49.79
2022-10-23T11:59:55.650Z,50.12
2022-10-23T12:02:59.071Z,47.59
2022-10-23T12:06:25.651Z,46.44
2022-10-23T12:13:53.024Z,45.36
2022-10-23T12:16:50.641Z,45.15
2022-10-23T12:19:30.185Z,45.63
2022-10-23T12:22:01.782Z,47.18
2022-10-23T12:24:43.347Z,48.13
2022-10-23T12:27:25.849Z,47.46
2022-10-23T12:30:12.476Z,46.71
2022-10-23T12:33:08.281Z,48.45
2022-10-23T12:36:37.147Z,49.96
2022-10-23T12:39:47.021Z,52.20
2022-10-23T12:42:32.823Z,54.09
2022-10-23T12:49:31.528Z,54.99
2022-10-23T12:52:05.717Z,54.78
2022-10-23T12:54:39.753Z,53.99
2022-10-23T12:57:28.224Z,54.99
2022-10-23T13:00:03.964Z,55.40
2022-10-23T13:02:35.293Z,53.98
2022-10-23T13:05:07.529Z,58.47
2022-10-23T13:07:43.113Z,59.81
2022-10-23T13:10:15.369Z,62.50
2022-10-23T13:13:13.499Z,61.35
2022-10-23T13:15:43.819Z,60.98
2022-10-23T13:18:14.563Z,59.69
2022-10-23T13:20:59.833Z,58.88
2022-10-23T13:23:35.217Z,58.50
2022-10-23T13:26:26.254Z,58.41
2022-10-23T13:29:06.160Z,58.20
2022-10-23T13:31:37.706Z,55.81
2022-10-23T13:34:15.291Z,55.54
2022-10-23T13:37:01.380Z,54.09
2022-10-23T13:39:33.878Z,53.27
2022-10-23T13:42:11.974Z,53.04
2022-10-23T13:44:40.246Z,53.82
2022-10-23T13:47:13.810Z,53.14
2022-10-23T13:49:41.318Z,53.40
2022-10-23T13:52:12.922Z,53.38
2022-10-23T13:55:02.975Z,54.23
2022-10-23T13:57:58.860Z,53.42
2022-10-23T14:01:07.589Z,54.36
2022-10-23T14:03:52.001Z,55.75
2022-10-23T14:06:26.013Z,55.63
2022-10-23T14:08:53.608Z,56.34
2022-10-23T14:11:22.118Z,56.69
2022-10-23T14:13:50.256Z,53.70
2022-10-23T14:16:21.741Z,52.64
2022-10-23T14:18:49.345Z,55.67
2022-10-23T14:21:20.274Z,53.98
2022-10-23T14:23:52.512Z,54.46
2022-10-23T14:26:25.111Z,54.35
2022-10-23T14:28:59.346Z,54.95
2022-10-23T14:31:36.880Z,54.79
2022-10-23T14:34:07.653Z,54.37
2022-10-23T14:36:49.392Z,54.74
2022-10-23T14:39:17.439Z,54.96
2022-10-23T14:41:45.264Z,55.75
2022-10-23T14:44:14.085Z,56.75
2022-10-23T14:46:41.753Z,57.62
2022-10-23T14:49:09.693Z,58.15
2022-10-23T14:51:37.203Z,57.41
2022-10-23T14:54:07.657Z,56.75
2022-10-23T14:56:40.911Z,59.36
2022-10-23T14:59:14.184Z,58.10
2022-10-23T15:05:41.867Z,59.79
2022-10-23T15:08:09.315Z,61.30
2022-10-23T15:10:37.818Z,61.19
2022-10-23T15:13:05.429Z,63.14
2022-10-23T15:15:32.827Z,62.88
2022-10-23T15:18:00.334Z,64.68
2022-10-23T15:20:27.879Z,65.02
2022-10-23T15:23:14.233Z,66.74
2022-10-23T15:25:42.266Z,67.26
2022-10-23T15:28:10.242Z,67.66
2022-10-23T15:30:43.419Z,69.13
2022-10-23T15:33:11.583Z,70.07
2022-10-23T15:35:39.199Z,74.76
2022-10-23T15:38:06.808Z,76.48
2022-10-23T15:40:34.578Z,74.49
2022-10-23T15:43:02.462Z,77.64
2022-10-23T15:45:31.471Z,77.95
2022-10-23T15:47:59.100Z,77.80
2022-10-23T15:50:26.409Z,79.34
2022-10-23T15:52:53.901Z,78.90
2022-10-23T15:55:21.875Z,81.82
2022-10-23T15:57:49.438Z,80.03
2022-10-23T16:00:20.498Z,83.96
2022-10-23T16:02:48.693Z,88.23
2022-10-23T16:05:17.452Z,83.66
2022-10-23T16:07:46.376Z,82.93
2022-10-23T16:10:13.584Z,81.60
2022-10-23T16:12:41.176Z,84.14
2022-10-23T16:15:09.214Z,84.98
2022-10-23T16:17:37.615Z,87.73
2022-10-23T16:20:08.611Z,84.82
2022-10-23T16:22:44.852Z,83.63
2022-10-23T16:28:29.018Z,83.32
2022-10-23T16:31:09.148Z,81.26
2022-10-23T16:36:34.617Z,81.59
2022-10-23T16:39:32.690Z,79.77
2022-10-23T16:42:35.464Z,78.89
2022-10-23T16:45:13.216Z,79.81
2022-10-23T16:47:41.675Z,78.42
2022-10-23T16:50:09.477Z,78.67
2022-10-23T16:52:38.644Z,79.03
2022-10-23T16:55:11.080Z,78.97
2022-10-23T16:57:44.939Z,81.29
2022-10-23T17:00:43.390Z,77.72
2022-10-23T17:03:15.721Z,78.14
2022-10-23T17:05:45.650Z,77.83
2022-10-23T17:08:13.776Z,78.83
2022-10-23T17:10:41.370Z,79.43
2022-10-23T17:13:08.653Z,78.27
2022-10-23T17:15:36.147Z,78.47
2022-10-23T17:18:03.511Z,79.26
2022-10-23T17:20:31.290Z,79.79
2022-10-23T17:22:59.028Z,79.37
2022-10-23T17:25:26.572Z,79.29
2022-10-23T17:27:54.208Z,80.42
2022-10-23T17:30:21.813Z,79.09
2022-10-23T17:32:49.040Z,79.04
2022-10-23T17:35:16.665Z,81.35
2022-10-23T17:37:43.902Z,79.99
2022-10-23T17:40:12.096Z,81.25
2022-10-23T17:42:39.660Z,81.89
2022-10-23T17:45:07.643Z,83.79
2022-10-23T17:47:37.645Z,84.40
2022-10-23T17:50:09.454Z,89.32
2022-10-23T17:52:36.943Z,85.51
2022-10-23T17:55:04.823Z,88.34
2022-10-23T17:57:32.318Z,91.12
2022-10-23T18:00:00.190Z,88.70
2022-10-23T18:02:27.720Z,88.61
2022-10-23T18:04:59.590Z,88.78
2022-10-23T18:07:27.675Z,89.38
2022-10-23T18:09:55.172Z,90.05
2022-10-23T18:12:23.054Z,91.13
2022-10-23T18:14:50.725Z,90.58
2022-10-23T18:17:17.965Z,90.33
2022-10-23T18:19:45.726Z,90.91
2022-10-23T18:22:13.253Z,90.68
2022-10-23T18:24:41.030Z,91.49
2022-10-23T18:27:09.024Z,92.18
2022-10-23T18:29:38.210Z,91.67
2022-10-23T18:32:05.679Z,92.36
2022-10-23T18:34:33.280Z,92.50
2022-10-23T18:37:01.073Z,92.99
2022-10-23T18:39:28.794Z,92.09
2022-10-23T18:41:58.447Z,91.69
2022-10-23T18:44:29.289Z,92.44
2022-10-23T18:46:59.021Z,92.57
2022-10-23T18:49:27.533Z,92.02
2022-10-23T18:51:58.606Z,91.24
2022-10-23T18:54:26.122Z,91.15
2022-10-23T18:56:53.816Z,91.10
2022-10-23T18:59:22.898Z,91.97
2022-10-23T19:01:51.686Z,90.37
2022-10-23T19:04:21.895Z,89.55
2022-10-23T19:06:51.912Z,89.75
2022-10-23T19:09:20.810Z,89.93
2022-10-23T19:11:52.225Z,89.49
2022-10-23T19:14:19.731Z,90.59
2022-10-23T19:17:01.765Z,90.83
2022-10-23T19:19:35.532Z,91.22
2022-10-23T19:22:05.729Z,90.98
2022-10-23T19:24:57.150Z,91.08
2022-10-23T19:27:26.384Z,91.29
2022-10-23T19:29:55.198Z,90.61
2022-10-23T19:32:23.802Z,91.56
2022-10-23T19:34:51.291Z,91.64
2022-10-23T19:37:19.506Z,91.90
2022-10-23T19:39:47.014Z,92.95
2022-10-23T19:42:14.373Z,92.78
2022-10-23T19:44:42.009Z,92.63
2022-10-23T19:47:09.334Z,92.30
2022-10-23T19:49:38.462Z,91.21
2022-10-23T19:52:05.755Z,91.87
2022-10-23T19:54:33.570Z,92.17
2022-10-23T19:57:02.514Z,92.66
2022-10-23T19:59:31.806Z,92.41
2022-10-23T20:02:02.340Z,91.47
2022-10-23T20:04:30.534Z,92.75
2022-10-23T20:06:58.081Z,93.56
2022-10-23T20:09:25.822Z,92.76
2022-10-23T20:11:53.792Z,91.95
2022-10-23T20:14:21.462Z,93.07
2022-10-23T20:16:53.539Z,96.05
2022-10-23T20:19:23.864Z,96.88
2022-10-23T20:21:51.175Z,97.37
2022-10-23T20:24:20.296Z,97.62
2022-10-23T20:26:51.268Z,98.69
2022-10-23T20:29:19.090Z,97.36
2022-10-23T20:31:47.639Z,98.55
2022-10-23T20:34:15.462Z,97.58
2022-10-23T20:36:46.839Z,94.43
2022-10-23T20:39:26.786Z,93.93
2022-10-23T20:41:58.235Z,94.53
2022-10-23T20:44:27.821Z,94.17
2022-10-23T20:46:55.768Z,93.84
2022-10-23T20:49:24.195Z,93.38
2022-10-23T20:51:56.206Z,93.50
2022-10-23T20:54:26.036Z,92.36
2022-10-23T20:56:54.465Z,91.40
2022-10-23T20:59:21.999Z,90.85
2022-10-23T21:01:56.240Z,91.33
2022-10-23T21:04:27.543Z,91.15
2022-10-23T21:07:09.480Z,90.27
2022-10-23T21:09:38.642Z,89.41
2022-10-23T21:12:06.813Z,89.76
2022-10-23T21:14:35.693Z,88.90
2022-10-23T21:17:04.933Z,87.50
2022-10-23T21:19:32.533Z,87.31
2022-10-23T21:21:59.839Z,86.79
2022-10-23T21:24:27.870Z,85.69
2022-10-23T21:26:55.119Z,85.84
2022-10-23T21:29:22.582Z,85.34
2022-10-23T21:31:58.520Z,84.84
2022-10-23T21:34:26.816Z,84.92
2022-10-23T21:37:11.894Z,84.82
2022-10-23T21:39:43.299Z,83.78
2022-10-23T21:42:12.825Z,83.70
2022-10-23T21:44:42.546Z,83.86
2022-10-23T21:47:10.133Z,83.36
2022-10-23T21:49:38.808Z,83.33
2022-10-23T21:52:06.679Z,83.29
2022-10-23T21:54:34.134Z,82.88
2022-10-23T21:57:03.335Z,82.43
2022-10-23T21:59:33.233Z,82.09
2022-10-23T22:02:21.609Z,81.90
2022-10-23T22:04:49.576Z,81.97
2022-10-23T22:07:17.279Z,81.58
2022-10-23T22:09:44.790Z,81.17
2022-10-23T22:12:12.251Z,80.92
2022-10-23T22:14:39.731Z,81.24
2022-10-23T22:17:07.054Z,81.00
2022-10-23T22:19:34.591Z,81.15
2022-10-23T22:22:02.665Z,81.34
2022-10-23T22:24:30.341Z,82.09
2022-10-23T22:26:57.687Z,82.01
2022-10-23T22:29:29.471Z,82.83
2022-10-23T22:31:58.588Z,82.78
2022-10-23T22:37:17.076Z,83.24
2022-10-23T22:39:56.087Z,82.76
2022-10-23T22:42:26.102Z,82.83
2022-10-23T22:44:54.226Z,82.96
2022-10-23T22:47:21.498Z,83.33
2022-10-23T22:49:48.955Z,82.65
2022-10-23T22:52:16.221Z,83.17
2022-10-23T22:54:43.785Z,83.23
2022-10-23T22:57:11.030Z,83.11
2022-10-23T22:59:39.270Z,83.61
2022-10-23T23:02:06.545Z,83.99
2022-10-23T23:04:38.732Z,84.15
2022-10-23T23:07:08.731Z,83.43
2022-10-23T23:09:41.742Z,83.42
2022-10-23T23:12:13.336Z,83.20
2022-10-23T23:14:41.780Z,82.77
2022-10-23T23:17:10.459Z,82.95
2022-10-23T23:19:38.046Z,83.41
2022-10-23T23:22:05.778Z,83.04
2022-10-23T23:24:34.081Z,82.84
2022-10-23T23:27:01.398Z,82.88
2022-10-23T23:29:29.677Z,83.42
2022-10-23T23:31:57.083Z,84.02
2022-10-23T23:34:24.666Z,83.82
2022-10-23T23:36:51.922Z,84.38
2022-10-23T23:39:19.409Z,85.13
2022-10-23T23:41:46.639Z,85.04
2022-10-23T23:44:14.124Z,85.22
2022-10-23T23:46:41.387Z,85.15
2022-10-23T23:49:08.880Z,84.85
2022-10-23T23:51:44.758Z,85.04
2022-10-23T23:54:12.333Z,85.52
2022-10-23T23:56:39.577Z,85.83
2022-10-23T23:59:07.045Z,85.94
